sensor_id;sensor_type;location;lat;lon;timestamp;P1;durP1;ratioP1;P2;durP2;ratioP2
1523;SDS011;755;53.658;10.118;2022-10-16T00:07:02;11.63;;;6.65;;
1523;SDS011;755;53.658;10.118;2022-10-16T00:17:04;15.68;;;8.68;;
1523;SDS011;755;53.658;10.118;2022-10-16T00:27:07;15.80;;;7.57;;
1523;SDS011;755;53.658;10.118;2022-10-16T00:37:09;8.00;;;4.97;;
1523;SDS011;755;53.658;10.118;2022-10-16T00:47:16;15.20;;;4.10;;
1523;SDS011;755;53.658;10.118;2022-10-16T00:57:22;12.20;;;3.42;;
1523;SDS011;755;53.658;10.118;2022-10-16T01:07:30;13.88;;;3.65;;
1523;SDS011;755;53.658;10.118;2022-10-16T01:17:41;10.80;;;2.70;;
1523;SDS011;755;53.658;10.118;2022-10-16T01:27:48;5.22;;;2.25;;
1523;SDS011;755;53.658;10.118;2022-10-16T01:37:51;8.60;;;2.72;;
1523;SDS011;755;53.658;10.118;2022-10-16T01:48:01;9.30;;;2.17;;
1523;SDS011;755;53.658;10.118;2022-10-16T01:58:07;12.73;;;2.40;;
1523;SDS011;755;53.658;10.118;2022-10-16T02:08:13;4.32;;;2.08;;
1523;SDS011;755;53.658;10.118;2022-10-16T02:18:15;9.85;;;2.05;;
1523;SDS011;755;53.658;10.118;2022-10-16T02:28:21;5.05;;;1.98;;
1523;SDS011;755;53.658;10.118;2022-10-16T02:38:26;11.30;;;2.10;;
1523;SDS011;755;53.658;10.118;2022-10-16T02:48:32;7.78;;;1.60;;
1523;SDS011;755;53.658;10.118;2022-10-16T02:58:36;6.88;;;1.73;;
1523;SDS011;755;53.658;10.118;2022-10-16T03:08:43;3.53;;;2.10;;
1523;SDS011;755;53.658;10.118;2022-10-16T03:18:47;9.10;;;1.38;;
1523;SDS011;755;53.658;10.118;2022-10-16T03:28:52;7.45;;;1.48;;
1523;SDS011;755;53.658;10.118;2022-10-16T03:38:54;8.15;;;1.65;;
1523;SDS011;755;53.658;10.118;2022-10-16T03:48:58;4.20;;;2.03;;
1523;SDS011;755;53.658;10.118;2022-10-16T03:59:00;5.53;;;1.90;;
1523;SDS011;755;53.658;10.118;2022-10-16T04:09:04;12.75;;;2.60;;
1523;SDS011;755;53.658;10.118;2022-10-16T04:19:06;5.28;;;2.03;;
1523;SDS011;755;53.658;10.118;2022-10-16T04:29:10;4.78;;;1.40;;
1523;SDS011;755;53.658;10.118;2022-10-16T04:39:12;3.10;;;1.45;;
1523;SDS011;755;53.658;10.118;2022-10-16T04:49:16;13.10;;;2.10;;
1523;SDS011;755;53.658;10.118;2022-10-16T04:59:18;6.70;;;2.08;;
1523;SDS011;755;53.658;10.118;2022-10-16T05:09:22;7.65;;;1.48;;
1523;SDS011;755;53.658;10.118;2022-10-16T05:19:24;4.95;;;1.90;;
1523;SDS011;755;53.658;10.118;2022-10-16T05:29:28;4.30;;;1.63;;
1523;SDS011;755;53.658;10.118;2022-10-16T05:39:30;7.93;;;1.60;;
1523;SDS011;755;53.658;10.118;2022-10-16T05:49:34;10.65;;;2.42;;
1523;SDS011;755;53.658;10.118;2022-10-16T05:59:36;9.88;;;2.22;;
1523;SDS011;755;53.658;10.118;2022-10-16T06:09:39;9.02;;;2.17;;
1523;SDS011;755;53.658;10.118;2022-10-16T06:19:41;7.18;;;2.15;;
1523;SDS011;755;53.658;10.118;2022-10-16T06:29:45;9.20;;;2.08;;
1523;SDS011;755;53.658;10.118;2022-10-16T06:39:47;9.68;;;2.63;;
1523;SDS011;755;53.658;10.118;2022-10-16T06:49:51;8.50;;;2.80;;
1523;SDS011;755;53.658;10.118;2022-10-16T06:59:53;12.95;;;3.47;;
1523;SDS011;755;53.658;10.118;2022-10-16T07:09:56;6.47;;;2.67;;
1523;SDS011;755;53.658;10.118;2022-10-16T07:19:59;5.40;;;3.30;;
1523;SDS011;755;53.658;10.118;2022-10-16T07:30:02;10.15;;;3.25;;
1523;SDS011;755;53.658;10.118;2022-10-16T07:40:05;9.38;;;2.90;;
1523;SDS011;755;53.658;10.118;2022-10-16T07:50:09;4.55;;;2.55;;
1523;SDS011;755;53.658;10.118;2022-10-16T08:00:12;5.82;;;2.55;;
1523;SDS011;755;53.658;10.118;2022-10-16T08:10:16;8.95;;;2.25;;
1523;SDS011;755;53.658;10.118;2022-10-16T08:20:19;5.55;;;2.25;;
1523;SDS011;755;53.658;10.118;2022-10-16T08:30:23;6.15;;;2.42;;
1523;SDS011;755;53.658;10.118;2022-10-16T08:40:26;5.78;;;2.03;;
1523;SDS011;755;53.658;10.118;2022-10-16T08:50:35;7.93;;;2.30;;
1523;SDS011;755;53.658;10.118;2022-10-16T09:00:39;6.13;;;1.83;;
1523;SDS011;755;53.658;10.118;2022-10-16T09:10:46;7.70;;;2.33;;
1523;SDS011;755;53.658;10.118;2022-10-16T09:20:57;5.05;;;1.58;;
1523;SDS011;755;53.658;10.118;2022-10-16T09:42:09;4.47;;;1.50;;
1523;SDS011;755;53.658;10.118;2022-10-16T09:52:13;4.03;;;1.58;;
1523;SDS011;755;53.658;10.118;2022-10-16T10:02:32;5.13;;;1.02;;
1523;SDS011;755;53.658;10.118;2022-10-16T10:12:46;3.33;;;1.08;;
1523;SDS011;755;53.658;10.118;2022-10-16T10:33:42;8.13;;;1.58;;
1523;SDS011;755;53.658;10.118;2022-10-16T10:44:19;5.70;;;1.00;;
1523;SDS011;755;53.658;10.118;2022-10-16T10:54:28;4.63;;;0.85;;
1523;SDS011;755;53.658;10.118;2022-10-16T11:05:08;6.50;;;1.20;;
1523;SDS011;755;53.658;10.118;2022-10-16T11:15:25;2.67;;;0.90;;
1523;SDS011;755;53.658;10.118;2022-10-16T11:25:32;3.65;;;0.80;;
1523;SDS011;755;53.658;10.118;2022-10-16T11:35:37;3.05;;;0.70;;
1523;SDS011;755;53.658;10.118;2022-10-16T11:45:45;10.75;;;1.05;;
1523;SDS011;755;53.658;10.118;2022-10-16T11:55:52;9.00;;;0.90;;
1523;SDS011;755;53.658;10.118;2022-10-16T12:06:05;2.75;;;1.00;;
1523;SDS011;755;53.658;10.118;2022-10-16T12:16:34;8.27;;;1.35;;
1523;SDS011;755;53.658;10.118;2022-10-16T12:38:03;6.78;;;1.33;;
1523;SDS011;755;53.658;10.118;2022-10-16T12:48:26;6.13;;;1.50;;
1523;SDS011;755;53.658;10.118;2022-10-16T12:58:45;9.30;;;1.00;;
1523;SDS011;755;53.658;10.118;2022-10-16T13:09:04;9.40;;;0.95;;
1523;SDS011;755;53.658;10.118;2022-10-16T13:19:23;12.30;;;1.10;;
1523;SDS011;755;53.658;10.118;2022-10-16T13:29:35;4.65;;;0.65;;
1523;SDS011;755;53.658;10.118;2022-10-16T13:39:38;9.13;;;0.85;;
1523;SDS011;755;53.658;10.118;2022-10-16T13:49:40;6.22;;;0.70;;
1523;SDS011;755;53.658;10.118;2022-10-16T13:59:43;2.08;;;0.73;;
1523;SDS011;755;53.658;10.118;2022-10-16T14:09:49;5.70;;;1.05;;
1523;SDS011;755;53.658;10.118;2022-10-16T14:31:26;8.75;;;0.80;;
1523;SDS011;755;53.658;10.118;2022-10-16T14:41:31;9.98;;;1.40;;
1523;SDS011;755;53.658;10.118;2022-10-16T14:51:43;5.80;;;1.05;;
1523;SDS011;755;53.658;10.118;2022-10-16T15:01:46;13.30;;;1.13;;
1523;SDS011;755;53.658;10.118;2022-10-16T15:11:50;8.10;;;1.00;;
1523;SDS011;755;53.658;10.118;2022-10-16T15:21:52;9.85;;;1.38;;
1523;SDS011;755;53.658;10.118;2022-10-16T15:31:55;5.88;;;1.10;;
1523;SDS011;755;53.658;10.118;2022-10-16T15:41:57;7.32;;;1.42;;
1523;SDS011;755;53.658;10.118;2022-10-16T15:52:00;10.00;;;2.10;;
1523;SDS011;755;53.658;10.118;2022-10-16T16:02:02;3.55;;;1.10;;
1523;SDS011;755;53.658;10.118;2022-10-16T16:12:06;5.20;;;1.20;;
1523;SDS011;755;53.658;10.118;2022-10-16T16:22:09;6.13;;;1.17;;
1523;SDS011;755;53.658;10.118;2022-10-16T16:32:15;10.95;;;1.92;;
1523;SDS011;755;53.658;10.118;2022-10-16T16:42:25;13.10;;;1.58;;
1523;SDS011;755;53.658;10.118;2022-10-16T17:02:53;5.18;;;1.27;;
1523;SDS011;755;53.658;10.118;2022-10-16T17:12:56;8.20;;;2.13;;
1523;SDS011;755;53.658;10.118;2022-10-16T17:22:59;8.73;;;1.70;;
1523;SDS011;755;53.658;10.118;2022-10-16T17:33:06;10.65;;;2.33;;
1523;SDS011;755;53.658;10.118;2022-10-16T17:43:15;12.57;;;2.25;;
1523;SDS011;755;53.658;10.118;2022-10-16T17:53:19;11.60;;;2.67;;
1523;SDS011;755;53.658;10.118;2022-10-16T18:03:21;9.38;;;2.70;;
1523;SDS011;755;53.658;10.118;2022-10-16T18:13:28;16.77;;;4.03;;
1523;SDS011;755;53.658;10.118;2022-10-16T18:23:31;13.10;;;4.57;;
1523;SDS011;755;53.658;10.118;2022-10-16T18:33:37;14.07;;;4.50;;
1523;SDS011;755;53.658;10.118;2022-10-16T18:43:40;12.70;;;4.43;;
1523;SDS011;755;53.658;10.118;2022-10-16T18:54:13;14.65;;;4.85;;
1523;SDS011;755;53.658;10.118;2022-10-16T19:04:17;14.87;;;4.80;;
1523;SDS011;755;53.658;10.118;2022-10-16T19:14:22;18.20;;;7.95;;
1523;SDS011;755;53.658;10.118;2022-10-16T19:24:25;18.55;;;7.50;;
1523;SDS011;755;53.658;10.118;2022-10-16T19:34:29;23.40;;;10.85;;
1523;SDS011;755;53.658;10.118;2022-10-16T19:44:34;37.13;;;14.82;;
1523;SDS011;755;53.658;10.118;2022-10-16T19:54:44;36.08;;;13.95;;
1523;SDS011;755;53.658;10.118;2022-10-16T20:04:49;30.77;;;8.25;;
1523;SDS011;755;53.658;10.118;2022-10-16T20:14:56;22.55;;;7.43;;
1523;SDS011;755;53.658;10.118;2022-10-16T20:24:58;14.35;;;6.90;;
1523;SDS011;755;53.658;10.118;2022-10-16T20:35:01;16.35;;;6.90;;
1523;SDS011;755;53.658;10.118;2022-10-16T20:45:04;23.27;;;6.78;;
1523;SDS011;755;53.658;10.118;2022-10-16T20:55:08;37.00;;;10.32;;
1523;SDS011;755;53.658;10.118;2022-10-16T21:05:10;16.63;;;7.63;;
1523;SDS011;755;53.658;10.118;2022-10-16T21:15:14;19.60;;;6.18;;
1523;SDS011;755;53.658;10.118;2022-10-16T21:25:16;20.15;;;6.80;;
1523;SDS011;755;53.658;10.118;2022-10-16T21:35:19;17.45;;;7.72;;
1523;SDS011;755;53.658;10.118;2022-10-16T21:45:21;19.75;;;6.78;;
1523;SDS011;755;53.658;10.118;2022-10-16T21:55:24;15.80;;;6.13;;
1523;SDS011;755;53.658;10.118;2022-10-16T22:05:26;11.13;;;5.80;;
1523;SDS011;755;53.658;10.118;2022-10-16T22:15:30;11.15;;;4.82;;
1523;SDS011;755;53.658;10.118;2022-10-16T22:25:33;18.25;;;5.20;;
1523;SDS011;755;53.658;10.118;2022-10-16T22:35:37;17.10;;;5.93;;
1523;SDS011;755;53.658;10.118;2022-10-16T22:45:41;11.32;;;5.28;;
1523;SDS011;755;53.658;10.118;2022-10-16T22:55:45;12.95;;;5.30;;
1523;SDS011;755;53.658;10.118;2022-10-16T23:05:48;10.95;;;5.03;;
1523;SDS011;755;53.658;10.118;2022-10-16T23:15:57;12.00;;;5.00;;
1523;SDS011;755;53.658;10.118;2022-10-16T23:26:07;8.98;;;3.97;;
1523;SDS011;755;53.658;10.118;2022-10-16T23:36:13;15.70;;;3.53;;
1523;SDS011;755;53.658;10.118;2022-10-16T23:56:36;12.18;;;3.85;;
